Hlavní strana
METAR-TAF:

METAR-TAF

Letiště :

Ciudad de Panamá, Panama

zeměpisná šířka: 08-59N, zeměpisná délka: 079-31W, výška: 13 m

Aktuální stav počasí

Zpráva byla vytvořena před 15 minutami, v 18:00 UTC
Severní vítr 16 kt
Teplota 31°C
Vlhkost vzduchu 55%
Tlak 1011 hPa
Viditelnost 10 km a více
Skoro jasno ve výšce 2000 ft

METAR: MPMG 181800Z 35016KT 9999 FEW020 31/21 Q1011 NOSIG

Čas: 13:15 (18:15 UTC)

Předpověď počasí

Zpráva byla vytvořena před 2 hodinami a 0 minutami, v 16:15 UTC
Předpověď platná od 18 v 18 UTC do 19 v 06 UTC
Severoseverozápadní vítr 14 kt
Viditelnost 10 km a více
Polojasno ve výšce 1800 ft
Změna
od 19 v 01 UTC do 19 v 05 UTC
Severozápadní vítr 7 kt

TAF: MPMG 181615Z 1818/1906 34014KT 9999 SCT018 BECMG 1901/1905 31007KT

Stav a předpovědi počasí z více než 4 000 letišť (zprávy METAR a TAF).

Červené a žluté tečky na mapě představují dostupné meteorologické stanice.

Když kurzor umístíte na tečku, zobrazí se název stanice.

Pak kliknutím zobrazíte stav a předpověď počasí.

Chcete-li změnit mapu, kliknutím na zelené tlačítko se znaménkem +mapu přiblížíte, kliknutím na zelené tlačítko se znaménkem – mapu oddálíte a kliknutím na zelené šipky přejdete na sousední mapy.


METAR-TAF: